KDAL/DAL METAR and TAF weather

Enter ICAO airport designator
Station Type Date Time Source
KDAL METAR 2019/04/25 01:53 UTC NOAA

KDAL 250153Z 03005KT 5SM BR FEW004 SCT007 SCT100 OVC150 18/16 A2976 RMK AO2 RAE22 PRESFR SLP073 P0001 T01780161 $


Station Type Date Time Source
KDAL Decoded METAR 2019/04/25 01:53 UTC NOAA

DALLAS LOVE FIELD, TX, United States (KDAL) 32-51N 096-51W 158M
Apr 24, 2019 - 09:53 PM EDT / 2019.04.25 0153 UTC
Wind: from the NNE (030 degrees) at 6 MPH (5 KT):0
Visibility: 5 mile(s):0
Sky conditions: overcast
Weather: mist
Precipitation last hour: 0.01 inches
Temperature: 64.0 F (17.8 C)
Dew Point: 61.0 F (16.1 C)
Relative Humidity: 89%
Pressure (altimeter): 29.76 in. Hg (1007 hPa)
Pressure tendency: falling rapidly
ob: KDAL 250153Z 03005KT 5SM BR FEW004 SCT007 SCT100 OVC150 18/16 A2976 RMK AO2 RAE22 PRESFR SLP073 P0001 T01780161
cycle: 2

Station Type Date Time Source
KDAL TAF 2019/04/24 21:52 UTC NOAA

TAF
AMD KDAL 242052Z 2421/2518 33007KT 6SM RA SCT020 BKN045 OVC090
FM250300 32005KT P6SM BKN045 OVC100

Example: see airport list